Terminal Aerodrome Forecast
Issued by NWS Goodland, KS

Home | Current Version | Previous Version | Text Only | Print | Product List | Glossary On
Versions: 1 2 3 4 5 6 7 8 9 10 11 12 13 14 15 16 17 18 19 20
043
FTUS43 KGLD 202320
TAFGLD
TAF
KGLD 202320Z 2100/2124 14015G25KT P6SM SKC
     FM210100 14012KT P6SM SKC
     FM210600 18012KT P6SM SCT150 WS020/19040KT
     FM211300 22011KT P6SM SKC
     FM211700 29009KT P6SM SKC
     FM211900 32009KT P6SM SKC
     FM212000 36009KT P6SM SCT200=

USA.gov is the U.S. government's official web portal to all federal, state and local government web resources and services.